Time;durP1;ratioP1;P1;durP2;ratioP2;P2;SDS_P1;SDS_P2;PMS_P1;PMS_P2;Temp;Humidity;BMP_temperature;BMP_pressure;BME280_temperature;BME280_humidity;BME280_pressure;Samples;Min_cycle;Max_cycle;Signal;HPM_P1;HPM_P2
2022/02/23 04:48:50;;;;;;;4.80;0.88;;;6.80;99.90;;;;;;5209819;23;20492;-79
2022/02/23 04:51:18;;;;;;;6.13;1.23;;;6.80;99.90;;;;;;4974216;28;20050;-76
2022/02/23 04:53:45;;;;;;;4.90;0.98;;;6.90;99.90;;;;;;4974035;28;20047;-78
2022/02/23 04:56:12;;;;;;;4.57;0.90;;;7.10;99.90;;;;;;4973054;28;20057;-77
2022/02/23 04:58:39;;;;;;;5.60;1.13;;;6.80;99.90;;;;;;4973897;28;20047;-76
2022/02/23 05:01:07;;;;;;;3.45;0.80;;;6.80;99.90;;;;;;4973690;28;20057;-76
2022/02/23 05:03:35;;;;;;;5.63;1.00;;;6.80;99.90;;;;;;4973689;28;20078;-75
2022/02/23 05:06:03;;;;;;;7.50;1.25;;;6.80;99.90;;;;;;4973477;28;20502;-78
2022/02/23 05:08:30;;;;;;;5.10;0.95;;;6.80;99.90;;;;;;4973624;28;20075;-76
2022/02/23 05:10:58;;;;;;;7.57;1.42;;;6.70;99.90;;;;;;4973180;28;20054;-77
2022/02/23 05:13:26;;;;;;;7.30;2.30;;;6.70;99.90;;;;;;4973933;28;20050;-76
2022/02/23 05:15:53;;;;;;;6.47;1.40;;;6.70;99.90;;;;;;4972947;28;20058;-76
2022/02/23 05:18:20;;;;;;;5.32;1.40;;;6.70;99.90;;;;;;4973540;28;20051;-80
2022/02/23 05:20:47;;;;;;;7.30;1.52;;;6.80;99.90;;;;;;4974594;28;20058;-77
2022/02/23 05:23:17;;;;;;;5.60;1.10;;;6.70;99.90;;;;;;4977144;28;20158;-77
2022/02/23 05:25:44;;;;;;;5.20;0.93;;;6.80;99.90;;;;;;4977102;28;20377;-77
2022/02/23 05:28:11;;;;;;;4.30;0.95;;;6.80;99.90;;;;;;4976641;28;20049;-76
2022/02/23 05:30:38;;;;;;;6.50;1.63;;;6.70;99.90;;;;;;4976925;28;20118;-76
2022/02/23 05:33:05;;;;;;;3.67;1.10;;;6.70;99.90;;;;;;4976852;28;20065;-77
2022/02/23 05:35:32;;;;;;;6.18;1.10;;;6.60;99.90;;;;;;4968079;28;20058;-77
2022/02/23 05:37:59;;;;;;;6.90;1.33;;;6.70;99.90;;;;;;4976851;28;20403;-76
2022/02/23 05:40:28;;;;;;;6.28;0.95;;;6.70;99.90;;;;;;4977438;28;20065;-75
2022/02/23 05:42:55;;;;;;;3.72;0.85;;;6.50;99.90;;;;;;4976980;28;20047;-78
2022/02/23 05:45:22;;;;;;;5.28;1.10;;;6.50;99.90;;;;;;4977063;28;20444;-78
2022/02/23 05:47:50;;;;;;;5.68;1.20;;;6.50;99.90;;;;;;4976872;28;20138;-78
2022/02/23 05:50:17;;;;;;;4.53;1.05;;;6.50;99.90;;;;;;4976641;28;20394;-77
2022/02/23 05:52:45;;;;;;;5.63;1.30;;;6.40;99.90;;;;;;4976458;28;20407;-75
2022/02/23 05:55:13;;;;;;;5.80;1.17;;;6.40;99.90;;;;;;4976823;28;20054;-75
2022/02/23 05:57:41;;;;;;;6.22;1.20;;;6.30;99.90;;;;;;4976717;28;20054;-77
2022/02/23 06:00:11;;;;;;;5.80;1.20;;;6.20;99.90;;;;;;4976755;28;20050;-76
2022/02/23 06:02:38;;;;;;;4.43;1.05;;;6.30;99.90;;;;;;4976668;28;20050;-76
2022/02/23 06:05:06;;;;;;;8.40;1.40;;;6.30;99.90;;;;;;4976654;28;20407;-78
2022/02/23 06:07:34;;;;;;;5.88;1.30;;;6.20;99.90;;;;;;4976698;28;20130;-77
2022/02/23 06:10:01;;;;;;;5.03;1.50;;;6.30;99.90;;;;;;4976531;28;20121;-77
2022/02/23 06:12:28;;;;;;;4.75;1.42;;;6.20;99.90;;;;;;4976096;28;20134;-77
2022/02/23 06:14:57;;;;;;;6.07;1.20;;;6.10;99.90;;;;;;4976457;28;20058;-77
2022/02/23 06:17:24;;;;;;;4.00;1.13;;;6.10;99.90;;;;;;4976487;28;20126;-77
2022/02/23 06:19:51;;;;;;;4.10;1.10;;;6.10;99.90;;;;;;4975997;28;20129;-78
2022/02/23 06:22:19;;;;;;;6.22;1.10;;;6.10;99.90;;;;;;4976421;28;20043;-78
2022/02/23 06:24:46;;;;;;;4.78;1.25;;;6.00;99.90;;;;;;4976202;28;20057;-78
2022/02/23 06:27:13;;;;;;;4.63;1.33;;;6.00;99.90;;;;;;4976236;28;20051;-79
2022/02/23 06:29:41;;;;;;;8.20;1.42;;;6.00;99.90;;;;;;4975935;28;20051;-77
2022/02/23 06:32:10;;;;;;;5.55;1.25;;;6.00;99.90;;;;;;4975392;28;20053;-76
2022/02/23 06:34:37;;;;;;;5.47;1.70;;;6.00;99.90;;;;;;4975803;28;20480;-77
2022/02/23 06:37:06;;;;;;;6.80;1.50;;;5.90;99.90;;;;;;4976029;28;20082;-77
2022/02/23 06:39:35;;;;;;;5.28;1.30;;;5.80;99.90;;;;;;4976033;28;20050;-76
2022/02/23 06:42:04;;;;;;;6.40;1.20;;;5.80;99.90;;;;;;4975478;28;20051;-75
2022/02/23 06:44:32;;;;;;;5.38;1.20;;;5.80;99.90;;;;;;4975720;28;20046;-78
2022/02/23 06:47:00;;;;;;;5.25;1.38;;;5.70;99.90;;;;;;4975726;28;20464;-76
2022/02/23 06:49:30;;;;;;;5.60;1.30;;;5.60;99.90;;;;;;4975573;28;20496;-76
2022/02/23 06:51:58;;;;;;;4.15;1.27;;;5.80;99.90;;;;;;4975694;28;20554;-76
2022/02/23 06:54:26;;;;;;;4.18;1.10;;;5.70;99.90;;;;;;4975753;28;20109;-77
2022/02/23 06:56:54;;;;;;;4.38;1.02;;;5.70;99.90;;;;;;4975362;28;20050;-77
2022/02/23 06:59:21;;;;;;;5.60;1.23;;;5.80;99.90;;;;;;4975561;28;20053;-77
2022/02/23 07:01:49;;;;;;;4.95;1.50;;;5.70;99.90;;;;;;4975460;28;20051;-75
2022/02/23 07:04:16;;;;;;;5.93;1.55;;;5.80;99.90;;;;;;4975405;28;20484;-75
2022/02/23 07:06:44;;;;;;;6.82;1.92;;;5.80;99.90;;;;;;4976261;28;20054;-77
2022/02/23 07:09:11;;;;;;;6.15;1.27;;;5.90;99.90;;;;;;4975178;28;20042;-75
2022/02/23 07:11:39;;;;;;;7.35;1.98;;;5.90;99.90;;;;;;4975233;28;20047;-78
2022/02/23 07:14:08;;;;;;;6.97;1.98;;;5.90;99.90;;;;;;4975434;28;20046;-75
2022/02/23 07:16:37;;;;;;;8.32;2.10;;;6.00;99.90;;;;;;4975069;28;20054;-75
2022/02/23 07:19:04;;;;;;;8.95;2.42;;;5.90;99.90;;;;;;4975428;28;20047;-77
2022/02/23 07:21:33;;;;;;;6.22;1.85;;;6.00;99.90;;;;;;4975249;28;20134;-77
2022/02/23 07:24:02;;;;;;;7.88;1.90;;;6.00;99.90;;;;;;4975136;28;20133;-78
2022/02/23 07:26:29;;;;;;;5.70;1.80;;;6.10;99.90;;;;;;4974804;28;20079;-77
2022/02/23 07:28:57;;;;;;;6.60;2.38;;;6.10;99.90;;;;;;4974904;28;20486;-78
2022/02/23 07:31:24;;;;;;;8.38;2.60;;;6.10;99.90;;;;;;4974862;28;20512;-77
2022/02/23 07:33:51;;;;;;;9.10;2.72;;;6.10;99.90;;;;;;4974945;28;20046;-76
2022/02/23 07:36:18;;;;;;;5.95;2.00;;;6.10;99.90;;;;;;4974818;28;20050;-77
2022/02/23 07:38:48;;;;;;;6.40;2.30;;;6.10;99.90;;;;;;4974870;28;20053;-78
2022/02/23 07:41:22;;;;;;;6.20;1.85;;;6.10;99.90;;;;;;4975120;28;20055;-77
2022/02/23 07:43:50;;;;;;;6.10;1.90;;;6.10;99.90;;;;;;4974820;28;20085;-78
2022/02/23 07:46:18;;;;;;;6.85;1.90;;;6.10;99.90;;;;;;4974676;28;20471;-75
2022/02/23 07:48:47;;;;;;;6.50;2.08;;;6.20;99.90;;;;;;4974257;28;20057;-75
2022/02/23 07:51:14;;;;;;;5.78;2.20;;;6.20;99.90;;;;;;4976022;28;20051;-79
2022/02/23 07:53:42;;;;;;;7.15;3.10;;;6.30;99.90;;;;;;4974284;28;20055;-77
2022/02/23 07:56:09;;;;;;;6.30;2.33;;;6.20;99.90;;;;;;4974315;28;20050;-75
2022/02/23 07:58:37;;;;;;;8.05;2.17;;;6.30;99.90;;;;;;4974256;28;20050;-77
2022/02/23 08:01:04;;;;;;;6.88;2.35;;;6.30;99.90;;;;;;4974066;28;20082;-77
2022/02/23 08:03:32;;;;;;;7.13;2.20;;;6.30;99.90;;;;;;4974409;28;20126;-77
2022/02/23 08:05:59;;;;;;;6.90;2.17;;;6.30;99.90;;;;;;4974686;28;20444;-76
2022/02/23 08:08:26;;;;;;;6.90;2.10;;;6.40;99.90;;;;;;4974543;28;20127;-75
2022/02/23 08:10:53;;;;;;;8.20;2.40;;;6.40;99.90;;;;;;4974445;28;20055;-76
2022/02/23 08:13:20;;;;;;;6.75;2.45;;;6.40;99.90;;;;;;4974526;28;20130;-78
2022/02/23 08:21:20;;;;;;;;;;;6.50;99.90;;;;;;4974624;28;20085;-76
2022/02/23 08:23:47;;;;;;;9.48;3.30;;;6.50;99.90;;;;;;4955026;29;19976;-77
2022/02/23 08:26:15;;;;;;;15.88;6.57;;;6.60;99.90;;;;;;4966345;28;20125;-75
2022/02/23 08:28:42;;;;;;;19.45;8.77;;;6.60;99.90;;;;;;4974041;28;20428;-77
2022/02/23 08:31:11;;;;;;;21.05;9.88;;;6.70;99.90;;;;;;4973937;28;20049;-78
2022/02/23 08:33:38;;;;;;;37.75;15.80;;;6.70;99.90;;;;;;4973990;28;20057;-77
2022/02/23 08:36:07;;;;;;;25.25;11.70;;;6.80;99.90;;;;;;4974073;28;20061;-76
2022/02/23 08:38:34;;;;;;;19.50;8.85;;;6.80;99.90;;;;;;4974009;28;20043;-77
2022/02/23 08:41:01;;;;;;;13.32;5.30;;;6.90;99.90;;;;;;4974549;28;20047;-77
2022/02/23 08:43:28;;;;;;;11.23;4.30;;;6.90;99.90;;;;;;4973949;28;20114;-77
2022/02/23 08:45:56;;;;;;;7.30;3.50;;;7.00;99.90;;;;;;4974195;28;20130;-76
2022/02/23 08:48:25;;;;;;;8.02;3.28;;;7.00;99.90;;;;;;4973800;28;20554;-78
2022/02/23 08:50:52;;;;;;;8.60;3.10;;;7.00;99.90;;;;;;4974113;28;20435;-77
2022/02/23 08:53:19;;;;;;;9.98;3.30;;;7.10;99.90;;;;;;4973765;28;20468;-76
2022/02/23 08:55:46;;;;;;;10.30;3.65;;;7.10;99.90;;;;;;4974638;28;20046;-75
2022/02/23 08:58:15;;;;;;;13.00;4.03;;;7.10;99.90;;;;;;4978314;28;20051;-77
2022/02/23 09:00:42;;;;;;;12.48;4.43;;;7.20;99.90;;;;;;4978097;28;20042;-76
2022/02/23 09:03:09;;;;;;;10.02;3.35;;;7.20;99.90;;;;;;4977772;28;20054;-77
2022/02/23 09:05:37;;;;;;;7.88;2.65;;;7.20;99.90;;;;;;4977745;28;20053;-77
2022/02/23 09:08:05;;;;;;;9.27;3.10;;;7.30;99.90;;;;;;4977645;28;20047;-79
2022/02/23 09:10:32;;;;;;;9.80;2.70;;;7.30;99.90;;;;;;4977305;28;20057;-77
2022/02/23 09:12:59;;;;;;;5.65;2.30;;;7.40;99.90;;;;;;4977754;28;20053;-75
2022/02/23 09:15:26;;;;;;;7.15;2.00;;;7.40;99.90;;;;;;4977696;28;20042;-75
2022/02/23 09:17:53;;;;;;;6.80;1.80;;;7.50;99.90;;;;;;4977392;28;20051;-77
2022/02/23 09:20:20;;;;;;;8.23;1.83;;;7.60;99.90;;;;;;4977344;28;20540;-77
2022/02/23 09:22:49;;;;;;;5.00;1.42;;;7.60;99.90;;;;;;4977265;28;20050;-79
2022/02/23 09:25:16;;;;;;;7.22;1.38;;;7.70;99.90;;;;;;4977500;28;20046;-77
2022/02/23 09:27:43;;;;;;;5.65;1.58;;;7.90;99.90;;;;;;4977397;28;20051;-78
2022/02/23 09:30:12;;;;;;;7.40;1.65;;;8.00;99.90;;;;;;4959518;28;20491;-76
2022/02/23 09:32:41;;;;;;;8.43;1.70;;;8.00;99.90;;;;;;4955483;29;20131;-78
2022/02/23 09:35:09;;;;;;;7.50;1.30;;;8.10;99.90;;;;;;4955404;29;20515;-78
2022/02/23 09:37:37;;;;;;;7.40;1.70;;;8.10;99.90;;;;;;4955175;29;20510;-76
2022/02/23 09:40:07;;;;;;;6.25;1.50;;;8.20;99.90;;;;;;4955408;29;20057;-78
2022/02/23 09:42:34;;;;;;;5.68;1.15;;;8.30;99.90;;;;;;4955149;29;20047;-76
2022/02/23 09:45:04;;;;;;;6.75;1.58;;;8.40;99.90;;;;;;4955120;29;20146;-77
2022/02/23 09:47:32;;;;;;;5.32;1.35;;;8.40;99.90;;;;;;4952594;29;20052;-76
2022/02/23 09:49:59;;;;;;;5.38;1.15;;;8.50;99.90;;;;;;4963164;28;20059;-75
2022/02/23 09:52:27;;;;;;;6.72;1.75;;;8.60;99.90;;;;;;4973901;28;20050;-76
2022/02/23 09:54:58;;;;;;;7.90;1.30;;;8.60;99.90;;;;;;4974509;28;20050;-78
2022/02/23 09:57:28;;;;;;;6.47;1.27;;;8.60;99.90;;;;;;4954916;29;20493;-78
2022/02/23 09:59:56;;;;;;;6.97;1.38;;;8.60;99.90;;;;;;4955461;29;20075;-75
2022/02/23 10:02:23;;;;;;;5.80;1.13;;;8.70;99.90;;;;;;4955055;29;20059;-77
2022/02/23 10:04:51;;;;;;;6.75;1.40;;;8.90;99.90;;;;;;4954494;29;20146;-77
2022/02/23 10:07:30;;;;;;;4.50;1.20;;;8.90;99.40;;;;;;4954109;28;20142;-80
2022/02/23 10:10:00;;;;;;;4.82;1.20;;;8.90;99.20;;;;;;4960668;28;20393;-78
2022/02/23 10:12:29;;;;;;;5.20;1.25;;;9.00;99.00;;;;;;4974333;28;20053;-79
2022/02/23 10:15:11;;;;;;;4.35;1.00;;;9.00;98.70;;;;;;4973560;28;20078;-78
2022/02/23 10:17:43;;;;;;;5.80;1.13;;;9.10;98.80;;;;;;4978337;28;20067;-78
2022/02/23 10:20:22;;;;;;;4.20;1.02;;;9.10;98.40;;;;;;4978877;28;20491;-79
2022/02/23 10:22:50;;;;;;;4.97;1.27;;;9.30;98.10;;;;;;4974031;28;20047;-76
2022/02/23 10:25:23;;;;;;;5.07;1.50;;;9.30;97.90;;;;;;4973850;28;20055;-77
2022/02/23 10:28:06;;;;;;;5.57;1.58;;;9.30;98.00;;;;;;4973839;28;20058;-78
2022/02/23 10:30:33;;;;;;;4.72;1.58;;;9.40;97.90;;;;;;4973639;28;20055;-75
2022/02/23 10:33:14;;;;;;;5.28;1.42;;;9.40;97.80;;;;;;4973629;28;20095;-78
2022/02/23 10:35:51;;;;;;;4.70;1.30;;;9.50;97.40;;;;;;4973827;28;20051;-77
2022/02/23 10:38:28;;;;;;;6.30;1.45;;;9.50;97.50;;;;;;4973573;28;20061;-78
2022/02/23 10:40:56;;;;;;;5.68;1.98;;;9.50;97.50;;;;;;4973067;28;20047;-77
2022/02/23 10:43:31;;;;;;;6.75;1.77;;;9.60;97.50;;;;;;4973115;28;20113;-78
2022/02/23 10:46:05;;;;;;;;;;;9.70;96.90;;;;;;4973887;28;20445;-79
2022/02/23 10:48:36;;;;;;;5.18;1.20;;;9.70;96.60;;;;;;4959846;28;19930;-79
2022/02/23 10:51:06;;;;;;;7.30;1.50;;;9.80;96.70;;;;;;4954107;29;20107;-76
2022/02/23 10:53:35;;;;;;;8.43;1.65;;;9.80;96.70;;;;;;4953704;28;20051;-80
2022/02/23 10:56:20;;;;;;;7.03;1.45;;;9.90;96.30;;;;;;4953762;29;20314;-77
2022/02/23 10:58:49;;;;;;;5.10;1.30;;;9.90;95.80;;;;;;4953772;28;20386;-79
2022/02/23 11:01:16;;;;;;;5.40;1.20;;;9.90;96.00;;;;;;4953749;29;20054;-78
2022/02/23 11:03:43;;;;;;;4.93;1.20;;;9.90;95.80;;;;;;4953773;28;20138;-78
2022/02/23 11:06:11;;;;;;;6.20;1.42;;;10.00;95.80;;;;;;4953283;28;20051;-77
2022/02/23 11:08:38;;;;;;;4.68;1.17;;;10.00;95.70;;;;;;4953750;29;20071;-78
2022/02/23 11:11:06;;;;;;;8.18;1.40;;;10.10;94.70;;;;;;4953174;29;20051;-79
2022/02/23 11:13:33;;;;;;;4.70;1.20;;;10.20;94.80;;;;;;4953355;28;20536;-79
2022/02/23 11:16:02;;;;;;;5.85;1.25;;;10.20;94.80;;;;;;4953414;28;20110;-78
2022/02/23 11:18:30;;;;;;;5.50;1.35;;;10.30;94.80;;;;;;4952715;28;20055;-77
2022/02/23 11:20:59;;;;;;;8.75;1.45;;;10.30;94.70;;;;;;4953274;28;20054;-78
2022/02/23 11:23:28;;;;;;;5.93;1.67;;;10.40;94.70;;;;;;4953055;29;20500;-77
2022/02/23 11:25:56;;;;;;;5.97;1.70;;;10.50;94.30;;;;;;4952921;28;20051;-78
2022/02/23 11:28:26;;;;;;;6.18;1.40;;;10.50;94.60;;;;;;4952769;28;20043;-78
2022/02/23 11:31:00;;;;;;;6.38;1.55;;;10.50;94.70;;;;;;4953088;28;20052;-77
2022/02/23 11:33:56;;;;;;;6.88;1.42;;;10.60;94.70;;;;;;4953284;29;20407;-78
2022/02/23 11:36:27;;;;;;;7.60;1.38;;;10.70;94.00;;;;;;4953049;28;20047;-77
2022/02/23 11:38:54;;;;;;;6.25;1.45;;;10.70;93.50;;;;;;4953042;28;20692;-78
2022/02/23 11:41:28;;;;;;;4.50;1.17;;;10.70;92.30;;;;;;4952977;29;20051;-77
2022/02/23 11:44:03;;;;;;;6.22;1.17;;;10.70;92.10;;;;;;4953549;29;20055;-78
2022/02/23 11:46:30;;;;;;;9.95;1.65;;;10.80;92.10;;;;;;4951730;29;20047;-79
2022/02/23 11:48:59;;;;;;;7.13;1.20;;;10.90;92.00;;;;;;4952646;29;20059;-79
2022/02/23 11:51:33;;;;;;;4.47;1.35;;;10.90;91.90;;;;;;4953134;29;20095;-75
2022/02/23 11:54:00;;;;;;;8.27;1.77;;;10.90;91.90;;;;;;4952063;29;20092;-77
2022/02/23 11:56:41;;;;;;;7.50;1.30;;;11.00;92.10;;;;;;4953037;28;20050;-76
2022/02/23 11:59:09;;;;;;;6.50;1.63;;;11.10;92.00;;;;;;4952641;28;20544;-79
2022/02/23 12:01:47;;;;;;;5.60;1.40;;;11.20;91.70;;;;;;4952710;28;20051;-78
2022/02/23 12:04:17;;;;;;;6.03;1.20;;;11.40;91.90;;;;;;4952708;29;20047;-77
2022/02/23 12:07:09;;;;;;;7.18;1.50;;;11.50;92.10;;;;;;4952431;28;20050;-78
2022/02/23 12:09:48;;;;;;;5.05;1.30;;;11.60;91.40;;;;;;4952447;29;20051;-79
2022/02/23 12:12:31;;;;;;;5.90;1.42;;;11.60;91.20;;;;;;4952766;29;20051;-76
2022/02/23 12:15:02;;;;;;;5.82;1.40;;;11.70;90.00;;;;;;4952793;29;20138;-78
2022/02/23 12:17:51;;;;;;;6.18;1.38;;;11.70;88.70;;;;;;4952383;29;20607;-78
2022/02/23 12:20:51;;;;;;;4.85;1.35;;;11.70;88.70;;;;;;4952637;28;20086;-76
2022/02/23 12:23:40;;;;;;;3.63;1.27;;;11.70;88.40;;;;;;4952288;29;20484;-76
2022/02/23 12:26:26;;;;;;;5.30;1.38;;;11.80;87.80;;;;;;4952092;28;20086;-78
2022/02/23 12:28:55;;;;;;;4.60;1.33;;;11.90;87.10;;;;;;4952429;28;20369;-78
2022/02/23 12:31:25;;;;;;;4.93;1.40;;;12.00;86.90;;;;;;4951693;29;20062;-78
2022/02/23 12:33:57;;;;;;;5.07;1.30;;;12.10;86.40;;;;;;4952128;29;20055;-79
2022/02/23 12:36:30;;;;;;;5.18;1.25;;;12.20;85.70;;;;;;4951536;29;20053;-76
2022/02/23 12:38:59;;;;;;;5.70;1.30;;;12.30;84.60;;;;;;4956571;28;20389;-77
2022/02/23 12:41:30;;;;;;;5.95;1.35;;;12.50;83.80;;;;;;4952144;29;20050;-78
2022/02/23 12:44:01;;;;;;;5.50;1.33;;;12.70;84.50;;;;;;4952258;29;20512;-77
2022/02/23 12:46:32;;;;;;;4.35;1.20;;;12.70;84.30;;;;;;4938530;29;20052;-77
2022/02/23 12:49:01;;;;;;;7.57;1.42;;;12.80;83.80;;;;;;4932772;29;20158;-78
2022/02/23 12:51:32;;;;;;;9.15;3.63;;;12.90;84.00;;;;;;4938024;28;20156;-77
2022/02/23 12:54:03;;;;;;;9.15;3.08;;;12.90;83.00;;;;;;4951913;29;20722;-78
2022/02/23 12:56:41;;;;;;;7.28;2.17;;;13.00;82.10;;;;;;4952358;29;20047;-78
2022/02/23 12:59:11;;;;;;;7.10;1.98;;;13.10;82.00;;;;;;4952234;29;20058;-78
2022/02/23 13:01:41;;;;;;;6.03;1.30;;;13.20;82.80;;;;;;4951934;28;20051;-80
2022/02/23 13:04:10;;;;;;;5.32;1.38;;;13.50;81.20;;;;;;4951342;29;20055;-78
2022/02/23 13:06:42;;;;;;;4.60;1.35;;;13.60;79.20;;;;;;4932652;29;20150;-78
2022/02/23 13:09:14;;;;;;;4.55;1.20;;;13.60;76.00;;;;;;4932833;29;20459;-80
2022/02/23 13:11:43;;;;;;;4.90;1.10;;;13.50;75.50;;;;;;4933075;29;20083;-80
2022/02/23 13:14:16;;;;;;;4.55;1.35;;;13.50;76.10;;;;;;4932757;29;20065;-79
2022/02/23 13:16:46;;;;;;;4.82;1.10;;;13.50;76.50;;;;;;4932724;29;20073;-79
2022/02/23 13:19:15;;;;;;;6.22;1.20;;;13.50;76.60;;;;;;4932874;29;20491;-78
2022/02/23 13:21:48;;;;;;;4.30;1.20;;;13.40;75.70;;;;;;4932752;29;20390;-76
2022/02/23 13:24:17;;;;;;;4.68;1.10;;;13.40;75.30;;;;;;4932726;29;20061;-79
2022/02/23 13:26:47;;;;;;;4.53;1.13;;;13.40;75.70;;;;;;4933052;29;20062;-80
2022/02/23 13:29:17;;;;;;;5.03;1.20;;;13.50;75.30;;;;;;4934409;29;20136;-78
2022/02/23 13:31:49;;;;;;;4.05;1.00;;;13.60;75.80;;;;;;4932513;29;20519;-79
2022/02/23 13:34:30;;;;;;;4.07;0.90;;;13.90;75.70;;;;;;4949981;29;20065;-80
2022/02/23 13:37:02;;;;;;;5.18;1.20;;;14.30;77.30;;;;;;4951572;29;20103;-79
2022/02/23 13:39:31;;;;;;;6.20;1.40;;;14.60;77.20;;;;;;4952021;28;20055;-80
2022/02/23 13:42:06;;;;;;;4.15;1.10;;;15.10;83.80;;;;;;4952806;28;20051;-80
2022/02/23 13:44:36;;;;;;;3.45;1.20;;;15.60;75.60;;;;;;4955843;29;20047;-79
2022/02/23 13:47:08;;;;;;;4.60;1.15;;;15.80;86.30;;;;;;4953365;29;20430;-80
2022/02/23 13:49:53;;;;;;;3.45;0.95;;;16.00;69.90;;;;;;4955020;28;20134;-79
2022/02/23 13:52:23;;;;;;;4.78;1.23;;;16.50;69.20;;;;;;4955069;29;20059;-79
2022/02/23 13:55:10;;;;;;;5.32;1.10;;;16.90;66.20;;;;;;4954362;28;20063;-78
2022/02/23 13:57:41;;;;;;;6.05;1.20;;;17.50;62.30;;;;;;4955191;28;20055;-77
2022/02/23 14:00:15;;;;;;;4.88;1.40;;;18.20;60.30;;;;;;4954170;28;20452;-78
2022/02/23 14:02:44;;;;;;;3.80;1.03;;;19.20;59.10;;;;;;4935485;29;20412;-80
2022/02/23 14:05:15;;;;;;;7.65;1.42;;;22.40;50.50;;;;;;4935590;29;20382;-80
2022/02/23 14:07:57;;;;;;;4.25;1.00;;;;;;;;;;4935881;29;20056;-78
2022/02/23 14:10:30;;;;;;;4.10;1.17;;;;;;;;;;4935597;29;20065;-79
2022/02/23 14:13:01;;;;;;;3.67;1.13;;;28.00;42.30;;;;;;4936129;29;20398;-77
2022/02/23 14:15:29;;;;;;;3.45;0.98;;;30.50;39.00;;;;;;4936079;29;20142;-78
2022/02/23 14:17:58;;;;;;;3.10;0.98;;;;;;;;;;4935375;29;20413;-79
2022/02/23 14:20:26;;;;;;;3.83;1.00;;;34.60;32.60;;;;;;4939978;29;20426;-79
2022/02/23 14:23:01;;;;;;;3.50;0.98;;;36.20;31.00;;;;;;4945349;29;20583;-79
2022/02/23 14:25:28;;;;;;;3.42;1.05;;;36.50;31.30;;;;;;4955190;29;20133;-79
2022/02/23 14:27:56;;;;;;;4.47;1.10;;;37.30;30.30;;;;;;4955440;28;20503;-76
2022/02/23 14:30:26;;;;;;;3.70;0.90;;;38.40;29.10;;;;;;4954224;28;20099;-79
2022/02/23 14:32:53;;;;;;;3.22;0.93;;;38.60;29.50;;;;;;4954464;29;20759;-79
2022/02/23 14:35:25;;;;;;;3.00;0.90;;;39.00;28.90;;;;;;4954055;29;20051;-80
2022/02/23 14:37:53;;;;;;;3.25;1.00;;;39.00;28.60;;;;;;4954802;29;20059;-78
2022/02/23 14:40:25;;;;;;;3.63;0.93;;;39.20;28.30;;;;;;4954151;28;20043;-78
2022/02/23 14:42:53;;;;;;;3.63;0.88;;;39.10;27.20;;;;;;4954287;29;20043;-79
2022/02/23 14:45:22;;;;;;;2.67;0.80;;;39.00;28.00;;;;;;4954175;29;20122;-77
2022/02/23 14:47:50;;;;;;;3.22;0.90;;;38.90;28.00;;;;;;4951905;29;20063;-78
2022/02/23 14:50:21;;;;;;;3.08;1.10;;;38.70;27.80;;;;;;4953522;29;20792;-77
2022/02/23 14:52:51;;;;;;;3.20;1.10;;;38.70;27.90;;;;;;4934674;29;20401;-78
2022/02/23 14:55:22;;;;;;;3.92;0.90;;;39.00;27.90;;;;;;4934208;29;20458;-80
2022/02/23 14:57:49;;;;;;;3.83;1.05;;;39.20;27.90;;;;;;4934797;29;20044;-79
2022/02/23 15:00:19;;;;;;;3.00;0.77;;;39.40;27.70;;;;;;4934541;29;20054;-79
2022/02/23 15:02:47;;;;;;;4.18;0.90;;;39.90;27.70;;;;;;4934652;29;20048;-77
2022/02/23 15:05:15;;;;;;;2.90;0.80;;;40.20;27.60;;;;;;4934433;29;20091;-80
2022/02/23 15:07:42;;;;;;;1.77;0.50;;;40.30;27.30;;;;;;4934696;29;20413;-80
2022/02/23 15:10:13;;;;;;;1.92;0.60;;;40.10;27.20;;;;;;4934529;29;20135;-76
2022/02/23 15:12:41;;;;;;;1.83;0.60;;;39.40;26.60;;;;;;4934837;29;20044;-79
2022/02/23 15:15:10;;;;;;;1.55;0.63;;;36.90;27.00;;;;;;4934297;29;20186;-81
2022/02/23 15:17:37;;;;;;;3.63;0.95;;;36.20;27.70;;;;;;4934286;29;20051;-78
2022/02/23 15:20:05;;;;;;;2.55;0.70;;;34.90;28.40;;;;;;4935506;29;20405;-78
2022/02/23 15:22:32;;;;;;;4.20;0.73;;;34.40;29.00;;;;;;4934305;29;20494;-79
2022/02/23 15:25:00;;;;;;;3.03;0.80;;;34.60;29.00;;;;;;4934040;29;20146;-80
2022/02/23 15:27:28;;;;;;;2.58;0.75;;;34.40;28.70;;;;;;4934003;29;20437;-79
2022/02/23 15:29:57;;;;;;;1.67;0.52;;;33.10;29.10;;;;;;4934225;29;20078;-77
2022/02/23 15:32:25;;;;;;;2.25;0.63;;;31.70;29.40;;;;;;4934353;29;20364;-78
2022/02/23 15:34:52;;;;;;;2.63;1.00;;;30.50;30.10;;;;;;4934194;29;20074;-79
2022/02/23 15:37:19;;;;;;;2.40;0.80;;;30.10;31.10;;;;;;4934266;29;20142;-80
2022/02/23 15:39:46;;;;;;;2.95;0.75;;;30.80;31.10;;;;;;4934203;29;20549;-79
2022/02/23 15:42:13;;;;;;;3.60;0.90;;;31.70;31.50;;;;;;4933874;29;20052;-80
2022/02/23 15:44:41;;;;;;;3.72;1.48;;;32.10;30.10;;;;;;4933688;29;20557;-79
2022/02/23 15:47:10;;;;;;;3.60;1.67;;;32.70;30.00;;;;;;4940248;29;20054;-76
2022/02/23 15:49:37;;;;;;;3.28;1.05;;;33.20;29.80;;;;;;4955996;29;20059;-77
2022/02/23 15:52:05;;;;;;;2.65;1.00;;;33.30;29.40;;;;;;4954861;29;20103;-79
2022/02/23 15:54:32;;;;;;;2.13;0.63;;;33.10;29.50;;;;;;4946279;29;20444;-78
2022/02/23 15:56:59;;;;;;;3.22;0.80;;;32.60;29.70;;;;;;4945540;29;20470;-76
2022/02/23 15:59:26;;;;;;;2.45;0.98;;;32.10;29.90;;;;;;4945683;29;20051;-79
2022/02/23 16:01:54;;;;;;;2.83;0.90;;;31.50;30.10;;;;;;4939881;29;20059;-79
2022/02/23 16:04:23;;;;;;;2.35;0.77;;;31.10;30.50;;;;;;4949999;28;20143;-80
2022/02/23 16:06:53;;;;;;;3.00;0.70;;;31.00;30.90;;;;;;4940108;29;20043;-79
2022/02/23 16:09:20;;;;;;;2.53;0.90;;;31.00;30.60;;;;;;4943237;28;20048;-76
2022/02/23 16:11:49;;;;;;;3.10;0.80;;;31.30;30.70;;;;;;4950245;29;20111;-79
2022/02/23 16:14:22;;;;;;;2.38;0.75;;;31.30;30.60;;;;;;4958058;28;20055;-78
2022/02/23 16:16:50;;;;;;;2.17;0.70;;;31.30;30.60;;;;;;4944163;29;20128;-80
2022/02/23 16:19:19;;;;;;;2.30;0.60;;;31.40;30.40;;;;;;4950766;29;20146;-79
2022/02/23 16:21:48;;;;;;;2.08;0.70;;;31.30;30.30;;;;;;4947682;28;20047;-77
2022/02/23 16:24:15;;;;;;;2.63;0.82;;;31.10;30.20;;;;;;4949060;29;20044;-79
2022/02/23 16:26:43;;;;;;;2.70;0.95;;;30.90;30.40;;;;;;4943599;29;20138;-77
2022/02/23 16:29:11;;;;;;;4.00;0.75;;;30.60;30.70;;;;;;4937132;29;20048;-79
2022/02/23 16:31:39;;;;;;;3.45;1.10;;;30.20;31.10;;;;;;4941692;28;20052;-80
2022/02/23 16:34:06;;;;;;;3.33;0.90;;;29.80;31.20;;;;;;4934814;29;20054;-80
2022/02/23 16:36:33;;;;;;;4.22;0.90;;;29.30;31.50;;;;;;4938228;29;20061;-80
2022/02/23 16:39:02;;;;;;;3.25;0.98;;;28.70;31.90;;;;;;4947350;29;20382;-79
2022/02/23 16:41:29;;;;;;;2.83;0.77;;;28.00;32.40;;;;;;4951838;29;20069;-79
2022/02/23 16:43:56;;;;;;;2.83;0.75;;;27.40;33.10;;;;;;4952561;28;20047;-79
2022/02/23 16:46:24;;;;;;;5.15;1.17;;;26.70;33.60;;;;;;4952181;29;20146;-80
2022/02/23 16:48:51;;;;;;;2.40;0.85;;;26.00;34.00;;;;;;4950547;28;20063;-80
2022/02/23 16:51:18;;;;;;;3.60;0.90;;;25.00;34.70;;;;;;4946998;29;20398;-80
2022/02/23 16:53:46;;;;;;;2.95;1.00;;;24.10;35.90;;;;;;4942550;29;20112;-80
2022/02/23 16:56:15;;;;;;;3.83;1.40;;;23.10;36.80;;;;;;4933141;29;20051;-80
2022/02/23 16:58:42;;;;;;;3.28;1.20;;;22.10;38.00;;;;;;4933003;29;20498;-80
2022/02/23 17:01:09;;;;;;;3.25;1.10;;;21.30;39.20;;;;;;4932852;29;20138;-81
2022/02/23 17:03:36;;;;;;;4.90;1.30;;;20.50;40.40;;;;;;4932927;29;20054;-76
2022/02/23 17:06:04;;;;;;;4.55;1.38;;;19.70;41.50;;;;;;4939620;29;20061;-79
2022/02/23 17:08:33;;;;;;;4.25;1.52;;;19.00;42.60;;;;;;4951651;29;20053;-80
2022/02/23 17:11:01;;;;;;;6.43;1.70;;;18.40;43.90;;;;;;4951908;29;20090;-80
2022/02/23 17:13:30;;;;;;;4.35;1.52;;;17.80;44.90;;;;;;4948907;28;20520;-80
2022/02/23 17:15:59;;;;;;;4.63;1.50;;;17.20;45.90;;;;;;4932696;29;20058;-79
2022/02/23 17:18:26;;;;;;;3.92;1.48;;;16.80;46.90;;;;;;4935740;29;20055;-80
2022/02/23 17:20:56;;;;;;;3.33;1.40;;;16.30;47.80;;;;;;4936329;29;20052;-79
2022/02/23 17:23:25;;;;;;;4.18;1.50;;;15.90;48.80;;;;;;4937987;29;20101;-81
2022/02/23 17:25:53;;;;;;;3.08;1.30;;;15.50;49.50;;;;;;4944474;29;20291;-80
2022/02/23 17:28:22;;;;;;;3.55;1.35;;;15.20;50.30;;;;;;4952748;29;20047;-79
2022/02/23 17:30:53;;;;;;;4.45;1.20;;;14.90;51.20;;;;;;4944235;29;20062;-78
2022/02/23 17:33:22;;;;;;;4.30;1.20;;;14.70;52.00;;;;;;4949894;29;20439;-80
2022/02/23 17:35:50;;;;;;;3.25;1.17;;;14.40;52.60;;;;;;4936479;28;20052;-78
2022/02/23 17:38:21;;;;;;;4.78;1.30;;;14.20;53.10;;;;;;4928723;29;20130;-80
2022/02/23 17:40:48;;;;;;;4.65;1.30;;;14.00;53.60;;;;;;4935132;29;20056;-80
2022/02/23 17:43:15;;;;;;;3.60;1.30;;;13.90;54.20;;;;;;4935243;29;20052;-80
2022/02/23 17:45:44;;;;;;;3.80;1.60;;;13.70;54.70;;;;;;4922563;29;20047;-77
2022/02/23 17:48:16;;;;;;;4.30;1.50;;;13.50;55.20;;;;;;4940140;29;20098;-79
2022/02/23 17:50:43;;;;;;;5.45;2.75;;;13.30;55.70;;;;;;4948672;29;20093;-79
2022/02/23 17:53:10;;;;;;;4.53;1.98;;;13.20;56.50;;;;;;4933666;29;20131;-81
2022/02/23 17:55:37;;;;;;;5.85;2.22;;;13.00;56.90;;;;;;4946286;29;20136;-80
2022/02/23 17:58:05;;;;;;;4.13;1.85;;;12.80;57.30;;;;;;4941728;29;20056;-79